sensor_id;sensor_type;location;lat;lon;timestamp;temperature;humidity
12329;DHT22;6230;52.390;10.256;2023-03-23T00:01:06;15.60;59.70
12329;DHT22;6230;52.390;10.256;2023-03-23T00:03:32;15.60;59.80
12329;DHT22;6230;52.390;10.256;2023-03-23T00:05:58;15.60;59.90
12329;DHT22;6230;52.390;10.256;2023-03-23T00:08:38;15.60;59.90
12329;DHT22;6230;52.390;10.256;2023-03-23T00:11:11;15.50;59.90
12329;DHT22;6230;52.390;10.256;2023-03-23T00:13:41;15.50;59.90
12329;DHT22;6230;52.390;10.256;2023-03-23T00:16:06;15.50;60.00
12329;DHT22;6230;52.390;10.256;2023-03-23T00:18:46;15.60;60.00
12329;DHT22;6230;52.390;10.256;2023-03-23T00:21:12;15.60;60.10
12329;DHT22;6230;52.390;10.256;2023-03-23T00:23:38;15.60;60.10
12329;DHT22;6230;52.390;10.256;2023-03-23T00:26:04;15.60;60.20
12329;DHT22;6230;52.390;10.256;2023-03-23T00:28:30;15.50;60.30
12329;DHT22;6230;52.390;10.256;2023-03-23T00:31:02;15.60;60.50
12329;DHT22;6230;52.390;10.256;2023-03-23T00:33:29;15.60;60.80
12329;DHT22;6230;52.390;10.256;2023-03-23T00:35:56;15.50;61.20
12329;DHT22;6230;52.390;10.256;2023-03-23T00:38:23;15.50;61.50
12329;DHT22;6230;52.390;10.256;2023-03-23T00:40:49;15.50;61.70
12329;DHT22;6230;52.390;10.256;2023-03-23T00:43:19;15.50;61.90
12329;DHT22;6230;52.390;10.256;2023-03-23T00:45:45;15.40;62.10
12329;DHT22;6230;52.390;10.256;2023-03-23T00:48:21;15.40;62.30
12329;DHT22;6230;52.390;10.256;2023-03-23T00:50:47;15.30;62.40
12329;DHT22;6230;52.390;10.256;2023-03-23T00:53:13;15.30;62.80
12329;DHT22;6230;52.390;10.256;2023-03-23T00:55:44;15.30;63.20
12329;DHT22;6230;52.390;10.256;2023-03-23T00:58:10;15.20;63.30
12329;DHT22;6230;52.390;10.256;2023-03-23T01:00:36;15.20;63.40
12329;DHT22;6230;52.390;10.256;2023-03-23T01:03:02;15.20;63.70
12329;DHT22;6230;52.390;10.256;2023-03-23T01:05:28;15.10;63.90
12329;DHT22;6230;52.390;10.256;2023-03-23T01:07:58;15.10;64.20
12329;DHT22;6230;52.390;10.256;2023-03-23T01:10:24;15.10;64.30
12329;DHT22;6230;52.390;10.256;2023-03-23T01:12:50;15.10;64.60
12329;DHT22;6230;52.390;10.256;2023-03-23T01:15:17;15.10;64.70
12329;DHT22;6230;52.390;10.256;2023-03-23T01:17:44;15.10;65.00
12329;DHT22;6230;52.390;10.256;2023-03-23T01:20:11;15.00;65.10
12329;DHT22;6230;52.390;10.256;2023-03-23T01:22:37;15.00;65.20
12329;DHT22;6230;52.390;10.256;2023-03-23T01:25:04;15.00;65.20
12329;DHT22;6230;52.390;10.256;2023-03-23T01:27:29;15.00;65.40
12329;DHT22;6230;52.390;10.256;2023-03-23T01:29:55;15.00;65.50
12329;DHT22;6230;52.390;10.256;2023-03-23T01:32:21;15.00;65.50
12329;DHT22;6230;52.390;10.256;2023-03-23T01:34:46;15.00;65.70
12329;DHT22;6230;52.390;10.256;2023-03-23T01:37:12;14.90;65.80
12329;DHT22;6230;52.390;10.256;2023-03-23T01:39:38;14.90;66.60
12329;DHT22;6230;52.390;10.256;2023-03-23T01:42:03;14.90;66.00
12329;DHT22;6230;52.390;10.256;2023-03-23T01:46:55;14.90;66.10
12329;DHT22;6230;52.390;10.256;2023-03-23T01:49:31;14.90;66.10
12329;DHT22;6230;52.390;10.256;2023-03-23T01:52:03;15.00;66.20
12329;DHT22;6230;52.390;10.256;2023-03-23T01:54:29;15.00;66.20
12329;DHT22;6230;52.390;10.256;2023-03-23T01:57:04;15.00;66.20
12329;DHT22;6230;52.390;10.256;2023-03-23T01:59:33;15.00;66.30
12329;DHT22;6230;52.390;10.256;2023-03-23T02:02:01;15.00;66.20
12329;DHT22;6230;52.390;10.256;2023-03-23T02:04:27;15.00;66.20
12329;DHT22;6230;52.390;10.256;2023-03-23T02:06:54;15.00;66.20
12329;DHT22;6230;52.390;10.256;2023-03-23T02:09:22;15.00;66.30
12329;DHT22;6230;52.390;10.256;2023-03-23T02:11:48;15.00;66.30
12329;DHT22;6230;52.390;10.256;2023-03-23T02:14:15;15.00;66.30
12329;DHT22;6230;52.390;10.256;2023-03-23T02:24:55;15.00;66.60
12329;DHT22;6230;52.390;10.256;2023-03-23T02:27:51;15.00;66.80
12329;DHT22;6230;52.390;10.256;2023-03-23T02:33:32;14.90;66.90
12329;DHT22;6230;52.390;10.256;2023-03-23T02:39:22;14.80;67.30
12329;DHT22;6230;52.390;10.256;2023-03-23T02:41:55;14.80;67.20
12329;DHT22;6230;52.390;10.256;2023-03-23T02:44:23;14.80;67.20
12329;DHT22;6230;52.390;10.256;2023-03-23T02:46:51;14.80;67.30
12329;DHT22;6230;52.390;10.256;2023-03-23T02:49:18;14.80;67.40
12329;DHT22;6230;52.390;10.256;2023-03-23T02:51:46;14.80;67.40
12329;DHT22;6230;52.390;10.256;2023-03-23T02:54:12;14.80;67.50
12329;DHT22;6230;52.390;10.256;2023-03-23T02:56:38;14.80;67.50
12329;DHT22;6230;52.390;10.256;2023-03-23T02:59:04;14.80;67.60
12329;DHT22;6230;52.390;10.256;2023-03-23T03:04:03;14.90;67.60
12329;DHT22;6230;52.390;10.256;2023-03-23T03:09:50;14.80;67.70
12329;DHT22;6230;52.390;10.256;2023-03-23T03:12:33;14.80;67.90
12329;DHT22;6230;52.390;10.256;2023-03-23T03:17:35;14.80;68.00
12329;DHT22;6230;52.390;10.256;2023-03-23T03:20:06;14.80;68.10
12329;DHT22;6230;52.390;10.256;2023-03-23T03:22:38;14.80;68.20
12329;DHT22;6230;52.390;10.256;2023-03-23T03:25:07;14.80;68.30
12329;DHT22;6230;52.390;10.256;2023-03-23T03:27:33;14.80;68.50
12329;DHT22;6230;52.390;10.256;2023-03-23T03:30:02;14.80;68.60
12329;DHT22;6230;52.390;10.256;2023-03-23T03:32:34;14.80;68.70
12329;DHT22;6230;52.390;10.256;2023-03-23T03:35:02;14.70;68.80
12329;DHT22;6230;52.390;10.256;2023-03-23T03:37:34;14.70;69.00
12329;DHT22;6230;52.390;10.256;2023-03-23T03:40:06;14.70;69.20
12329;DHT22;6230;52.390;10.256;2023-03-23T03:42:37;14.70;69.30
12329;DHT22;6230;52.390;10.256;2023-03-23T03:45:03;14.60;69.30
12329;DHT22;6230;52.390;10.256;2023-03-23T03:47:29;14.60;69.50
12329;DHT22;6230;52.390;10.256;2023-03-23T03:49:54;14.60;69.70
12329;DHT22;6230;52.390;10.256;2023-03-23T03:52:20;14.60;69.80
12329;DHT22;6230;52.390;10.256;2023-03-23T03:54:46;14.50;69.90
12329;DHT22;6230;52.390;10.256;2023-03-23T03:57:12;14.60;70.00
12329;DHT22;6230;52.390;10.256;2023-03-23T03:59:37;14.50;70.00
12329;DHT22;6230;52.390;10.256;2023-03-23T04:02:03;14.50;70.00
12329;DHT22;6230;52.390;10.256;2023-03-23T04:04:29;14.50;70.30
12329;DHT22;6230;52.390;10.256;2023-03-23T04:06:54;14.50;70.50
12329;DHT22;6230;52.390;10.256;2023-03-23T04:09:20;14.40;70.50
12329;DHT22;6230;52.390;10.256;2023-03-23T04:11:46;14.40;70.60
12329;DHT22;6230;52.390;10.256;2023-03-23T04:14:12;14.40;70.90
12329;DHT22;6230;52.390;10.256;2023-03-23T04:16:37;14.40;71.20
12329;DHT22;6230;52.390;10.256;2023-03-23T04:19:03;14.30;71.40
12329;DHT22;6230;52.390;10.256;2023-03-23T04:21:29;14.40;71.40
12329;DHT22;6230;52.390;10.256;2023-03-23T04:23:56;14.30;71.50
12329;DHT22;6230;52.390;10.256;2023-03-23T04:26:27;14.30;71.60
12329;DHT22;6230;52.390;10.256;2023-03-23T04:28:54;14.30;71.70
12329;DHT22;6230;52.390;10.256;2023-03-23T04:31:22;14.30;71.70
12329;DHT22;6230;52.390;10.256;2023-03-23T04:33:50;14.30;71.80
12329;DHT22;6230;52.390;10.256;2023-03-23T04:36:18;14.30;72.10
12329;DHT22;6230;52.390;10.256;2023-03-23T04:38:43;14.30;72.20
12329;DHT22;6230;52.390;10.256;2023-03-23T04:41:09;14.30;72.30
12329;DHT22;6230;52.390;10.256;2023-03-23T04:43:34;14.30;72.20
12329;DHT22;6230;52.390;10.256;2023-03-23T04:46:07;14.30;72.10
12329;DHT22;6230;52.390;10.256;2023-03-23T04:48:34;14.30;72.20
12329;DHT22;6230;52.390;10.256;2023-03-23T04:51:02;14.30;72.20
12329;DHT22;6230;52.390;10.256;2023-03-23T04:53:30;14.30;72.30
12329;DHT22;6230;52.390;10.256;2023-03-23T04:55:55;14.30;72.20
12329;DHT22;6230;52.390;10.256;2023-03-23T04:58:21;14.30;72.10
12329;DHT22;6230;52.390;10.256;2023-03-23T05:00:48;14.30;72.20
12329;DHT22;6230;52.390;10.256;2023-03-23T05:03:17;14.30;72.10
12329;DHT22;6230;52.390;10.256;2023-03-23T05:05:44;14.30;72.20
12329;DHT22;6230;52.390;10.256;2023-03-23T05:08:13;14.30;72.10
12329;DHT22;6230;52.390;10.256;2023-03-23T05:10:39;14.30;72.00
12329;DHT22;6230;52.390;10.256;2023-03-23T05:13:04;14.30;71.90
12329;DHT22;6230;52.390;10.256;2023-03-23T05:15:30;14.30;71.90
12329;DHT22;6230;52.390;10.256;2023-03-23T05:17:56;14.30;71.90
12329;DHT22;6230;52.390;10.256;2023-03-23T05:20:21;14.30;71.80
12329;DHT22;6230;52.390;10.256;2023-03-23T05:22:48;14.30;71.80
12329;DHT22;6230;52.390;10.256;2023-03-23T05:25:15;14.30;71.70
12329;DHT22;6230;52.390;10.256;2023-03-23T05:27:44;14.30;71.70
12329;DHT22;6230;52.390;10.256;2023-03-23T05:30:14;14.30;71.70
12329;DHT22;6230;52.390;10.256;2023-03-23T05:32:44;14.30;71.70
12329;DHT22;6230;52.390;10.256;2023-03-23T05:35:11;14.30;71.60
12329;DHT22;6230;52.390;10.256;2023-03-23T05:37:38;14.30;71.50
12329;DHT22;6230;52.390;10.256;2023-03-23T05:40:04;14.30;71.40
12329;DHT22;6230;52.390;10.256;2023-03-23T05:42:35;14.30;71.40
12329;DHT22;6230;52.390;10.256;2023-03-23T05:45:02;14.30;71.40
12329;DHT22;6230;52.390;10.256;2023-03-23T05:47:28;14.30;71.30
12329;DHT22;6230;52.390;10.256;2023-03-23T05:49:53;14.30;71.30
12329;DHT22;6230;52.390;10.256;2023-03-23T05:52:19;14.30;71.40
12329;DHT22;6230;52.390;10.256;2023-03-23T05:54:46;14.30;72.20
12329;DHT22;6230;52.390;10.256;2023-03-23T05:57:11;14.30;71.40
12329;DHT22;6230;52.390;10.256;2023-03-23T05:59:37;14.30;71.40
12329;DHT22;6230;52.390;10.256;2023-03-23T06:02:04;14.30;71.30
12329;DHT22;6230;52.390;10.256;2023-03-23T06:04:29;14.30;71.30
12329;DHT22;6230;52.390;10.256;2023-03-23T06:06:55;14.30;71.30
12329;DHT22;6230;52.390;10.256;2023-03-23T06:09:22;14.30;71.40
12329;DHT22;6230;52.390;10.256;2023-03-23T06:11:49;14.30;71.40
12329;DHT22;6230;52.390;10.256;2023-03-23T06:14:15;14.20;71.30
12329;DHT22;6230;52.390;10.256;2023-03-23T06:16:42;14.20;71.30
12329;DHT22;6230;52.390;10.256;2023-03-23T06:19:08;14.20;71.30
12329;DHT22;6230;52.390;10.256;2023-03-23T06:21:33;14.20;71.30
12329;DHT22;6230;52.390;10.256;2023-03-23T06:23:59;14.30;71.30
12329;DHT22;6230;52.390;10.256;2023-03-23T06:26:32;14.30;71.30
12329;DHT22;6230;52.390;10.256;2023-03-23T06:28:57;14.30;71.30
12329;DHT22;6230;52.390;10.256;2023-03-23T06:31:24;14.30;71.30
12329;DHT22;6230;52.390;10.256;2023-03-23T06:33:51;14.30;71.40
12329;DHT22;6230;52.390;10.256;2023-03-23T06:36:17;14.30;71.30
12329;DHT22;6230;52.390;10.256;2023-03-23T06:38:43;14.30;71.40
12329;DHT22;6230;52.390;10.256;2023-03-23T06:41:08;14.30;71.40
12329;DHT22;6230;52.390;10.256;2023-03-23T06:43:34;14.30;71.40
12329;DHT22;6230;52.390;10.256;2023-03-23T06:46:01;14.30;71.40
12329;DHT22;6230;52.390;10.256;2023-03-23T06:48:27;14.30;71.60
12329;DHT22;6230;52.390;10.256;2023-03-23T06:50:53;14.30;71.60
12329;DHT22;6230;52.390;10.256;2023-03-23T06:53:18;14.30;71.60
12329;DHT22;6230;52.390;10.256;2023-03-23T06:55:45;14.30;71.70
12329;DHT22;6230;52.390;10.256;2023-03-23T06:58:12;14.30;71.80
12329;DHT22;6230;52.390;10.256;2023-03-23T07:00:38;14.40;72.00
12329;DHT22;6230;52.390;10.256;2023-03-23T07:03:04;14.40;72.00
12329;DHT22;6230;52.390;10.256;2023-03-23T07:05:29;14.40;72.10
12329;DHT22;6230;52.390;10.256;2023-03-23T07:07:55;14.50;72.90
12329;DHT22;6230;52.390;10.256;2023-03-23T07:10:21;14.50;72.10
12329;DHT22;6230;52.390;10.256;2023-03-23T07:12:46;14.60;72.10
12329;DHT22;6230;52.390;10.256;2023-03-23T07:15:12;14.60;72.10
12329;DHT22;6230;52.390;10.256;2023-03-23T07:17:39;14.60;72.00
12329;DHT22;6230;52.390;10.256;2023-03-23T07:20:05;14.70;72.00
12329;DHT22;6230;52.390;10.256;2023-03-23T07:22:31;14.70;71.90
12329;DHT22;6230;52.390;10.256;2023-03-23T07:24:57;14.70;71.80
12329;DHT22;6230;52.390;10.256;2023-03-23T07:27:23;14.70;71.80
12329;DHT22;6230;52.390;10.256;2023-03-23T07:29:48;14.70;71.70
12329;DHT22;6230;52.390;10.256;2023-03-23T07:32:14;14.70;71.70
12329;DHT22;6230;52.390;10.256;2023-03-23T07:34:40;14.70;71.70
12329;DHT22;6230;52.390;10.256;2023-03-23T07:37:06;14.70;71.70
12329;DHT22;6230;52.390;10.256;2023-03-23T07:39:33;14.80;71.70
12329;DHT22;6230;52.390;10.256;2023-03-23T07:41:59;14.80;71.70
12329;DHT22;6230;52.390;10.256;2023-03-23T07:44:24;14.80;71.70
12329;DHT22;6230;52.390;10.256;2023-03-23T07:46:50;14.90;71.60
12329;DHT22;6230;52.390;10.256;2023-03-23T07:49:17;14.90;71.50
12329;DHT22;6230;52.390;10.256;2023-03-23T07:51:43;14.90;71.40
12329;DHT22;6230;52.390;10.256;2023-03-23T07:54:09;15.00;71.50
12329;DHT22;6230;52.390;10.256;2023-03-23T07:56:35;15.00;72.10
12329;DHT22;6230;52.390;10.256;2023-03-23T07:59:01;15.10;71.20
12329;DHT22;6230;52.390;10.256;2023-03-23T08:01:28;15.10;70.90
12329;DHT22;6230;52.390;10.256;2023-03-23T08:03:54;15.10;70.80
12329;DHT22;6230;52.390;10.256;2023-03-23T08:06:22;15.20;70.80
12329;DHT22;6230;52.390;10.256;2023-03-23T08:08:48;15.30;70.70
12329;DHT22;6230;52.390;10.256;2023-03-23T08:11:15;15.30;70.50
12329;DHT22;6230;52.390;10.256;2023-03-23T08:13:41;15.40;70.40
12329;DHT22;6230;52.390;10.256;2023-03-23T08:16:08;15.50;70.80
12329;DHT22;6230;52.390;10.256;2023-03-23T08:18:35;15.60;70.00
12329;DHT22;6230;52.390;10.256;2023-03-23T08:21:03;15.60;69.70
12329;DHT22;6230;52.390;10.256;2023-03-23T08:23:30;15.70;69.40
12329;DHT22;6230;52.390;10.256;2023-03-23T08:25:56;15.70;69.00
12329;DHT22;6230;52.390;10.256;2023-03-23T08:28:22;15.80;68.90
12329;DHT22;6230;52.390;10.256;2023-03-23T08:30:48;15.80;68.70
12329;DHT22;6230;52.390;10.256;2023-03-23T08:33:15;15.90;68.50
12329;DHT22;6230;52.390;10.256;2023-03-23T08:35:41;15.90;68.30
12329;DHT22;6230;52.390;10.256;2023-03-23T08:38:09;16.00;68.00
12329;DHT22;6230;52.390;10.256;2023-03-23T08:40:35;16.00;67.60
12329;DHT22;6230;52.390;10.256;2023-03-23T08:43:02;16.00;67.20
12329;DHT22;6230;52.390;10.256;2023-03-23T08:45:27;16.10;67.20
12329;DHT22;6230;52.390;10.256;2023-03-23T08:47:53;16.10;66.70
12329;DHT22;6230;52.390;10.256;2023-03-23T08:50:24;16.20;66.60
12329;DHT22;6230;52.390;10.256;2023-03-23T08:52:50;16.10;66.40
12329;DHT22;6230;52.390;10.256;2023-03-23T08:55:16;16.20;66.50
12329;DHT22;6230;52.390;10.256;2023-03-23T08:57:43;16.30;66.50
12329;DHT22;6230;52.390;10.256;2023-03-23T09:00:13;16.30;66.20
12329;DHT22;6230;52.390;10.256;2023-03-23T09:02:47;16.30;65.80
12329;DHT22;6230;52.390;10.256;2023-03-23T09:05:17;16.40;66.20
12329;DHT22;6230;52.390;10.256;2023-03-23T09:07:49;16.40;65.20
12329;DHT22;6230;52.390;10.256;2023-03-23T09:10:15;16.40;64.90
12329;DHT22;6230;52.390;10.256;2023-03-23T09:12:42;16.40;65.00
12329;DHT22;6230;52.390;10.256;2023-03-23T09:15:11;16.40;65.10
12329;DHT22;6230;52.390;10.256;2023-03-23T09:17:40;16.40;65.00
12329;DHT22;6230;52.390;10.256;2023-03-23T09:20:08;16.40;64.90
12329;DHT22;6230;52.390;10.256;2023-03-23T09:22:39;16.40;64.80
12329;DHT22;6230;52.390;10.256;2023-03-23T09:25:07;16.40;64.70
12329;DHT22;6230;52.390;10.256;2023-03-23T09:27:33;16.50;64.70
12329;DHT22;6230;52.390;10.256;2023-03-23T09:29:58;16.40;64.50
12329;DHT22;6230;52.390;10.256;2023-03-23T09:32:26;16.50;64.70
12329;DHT22;6230;52.390;10.256;2023-03-23T09:34:52;16.50;65.30
12329;DHT22;6230;52.390;10.256;2023-03-23T09:37:20;16.50;64.40
12329;DHT22;6230;52.390;10.256;2023-03-23T09:39:45;16.50;64.40
12329;DHT22;6230;52.390;10.256;2023-03-23T09:42:21;16.50;64.30
12329;DHT22;6230;52.390;10.256;2023-03-23T09:45:10;16.50;64.40
12329;DHT22;6230;52.390;10.256;2023-03-23T09:48:06;16.50;64.20
12329;DHT22;6230;52.390;10.256;2023-03-23T09:50:38;16.50;64.10
12329;DHT22;6230;52.390;10.256;2023-03-23T09:53:12;16.50;64.20
12329;DHT22;6230;52.390;10.256;2023-03-23T09:55:40;16.50;64.20
12329;DHT22;6230;52.390;10.256;2023-03-23T09:58:17;16.50;64.10
12329;DHT22;6230;52.390;10.256;2023-03-23T10:01:07;16.50;63.90
12329;DHT22;6230;52.390;10.256;2023-03-23T10:03:42;16.60;63.90
12329;DHT22;6230;52.390;10.256;2023-03-23T10:06:14;16.60;63.80
12329;DHT22;6230;52.390;10.256;2023-03-23T10:08:55;16.60;63.70
12329;DHT22;6230;52.390;10.256;2023-03-23T10:17:13;16.60;63.60
12329;DHT22;6230;52.390;10.256;2023-03-23T10:22:26;16.60;63.50
12329;DHT22;6230;52.390;10.256;2023-03-23T10:25:15;16.60;63.40
12329;DHT22;6230;52.390;10.256;2023-03-23T10:27:43;16.70;63.40
12329;DHT22;6230;52.390;10.256;2023-03-23T10:32:57;16.60;63.40
12329;DHT22;6230;52.390;10.256;2023-03-23T10:38:39;16.60;63.20
12329;DHT22;6230;52.390;10.256;2023-03-23T10:41:14;16.50;63.10
12329;DHT22;6230;52.390;10.256;2023-03-23T10:43:41;16.50;63.20
12329;DHT22;6230;52.390;10.256;2023-03-23T10:49:04;16.50;63.30
12329;DHT22;6230;52.390;10.256;2023-03-23T10:51:36;16.50;63.40
12329;DHT22;6230;52.390;10.256;2023-03-23T10:54:03;16.50;63.60
12329;DHT22;6230;52.390;10.256;2023-03-23T10:56:43;16.50;63.80
12329;DHT22;6230;52.390;10.256;2023-03-23T10:59:14;16.50;63.70
12329;DHT22;6230;52.390;10.256;2023-03-23T11:01:44;16.60;63.80
12329;DHT22;6230;52.390;10.256;2023-03-23T11:04:12;16.60;63.70
12329;DHT22;6230;52.390;10.256;2023-03-23T11:06:44;16.70;63.50
12329;DHT22;6230;52.390;10.256;2023-03-23T11:09:19;16.80;63.40
12329;DHT22;6230;52.390;10.256;2023-03-23T11:11:55;16.80;63.30
12329;DHT22;6230;52.390;10.256;2023-03-23T11:14:28;17.00;63.40
12329;DHT22;6230;52.390;10.256;2023-03-23T11:16:56;17.20;63.30
12329;DHT22;6230;52.390;10.256;2023-03-23T11:19:28;17.50;62.90
12329;DHT22;6230;52.390;10.256;2023-03-23T11:22:13;17.60;62.30
12329;DHT22;6230;52.390;10.256;2023-03-23T11:24:45;17.90;61.70
12329;DHT22;6230;52.390;10.256;2023-03-23T11:27:14;18.10;61.50
12329;DHT22;6230;52.390;10.256;2023-03-23T11:29:59;18.30;61.00
12329;DHT22;6230;52.390;10.256;2023-03-23T11:32:28;18.50;60.10
12329;DHT22;6230;52.390;10.256;2023-03-23T11:34:58;18.60;59.50
12329;DHT22;6230;52.390;10.256;2023-03-23T11:37:47;18.60;58.90
12329;DHT22;6230;52.390;10.256;2023-03-23T11:40:20;18.70;58.80
12329;DHT22;6230;52.390;10.256;2023-03-23T11:43:07;18.70;58.90
12329;DHT22;6230;52.390;10.256;2023-03-23T11:45:50;19.00;59.10
12329;DHT22;6230;52.390;10.256;2023-03-23T11:53:39;19.30;57.10
12329;DHT22;6230;52.390;10.256;2023-03-23T11:58:34;19.20;56.60
12329;DHT22;6230;52.390;10.256;2023-03-23T12:01:12;19.10;56.60
12329;DHT22;6230;52.390;10.256;2023-03-23T12:03:57;19.00;56.80
12329;DHT22;6230;52.390;10.256;2023-03-23T12:12:51;18.70;56.70
12329;DHT22;6230;52.390;10.256;2023-03-23T12:15:32;18.60;56.60
12329;DHT22;6230;52.390;10.256;2023-03-23T12:18:36;18.60;56.50
12329;DHT22;6230;52.390;10.256;2023-03-23T12:26:31;18.40;56.00
12329;DHT22;6230;52.390;10.256;2023-03-23T12:29:23;18.40;56.10
12329;DHT22;6230;52.390;10.256;2023-03-23T12:34:41;18.20;55.80
12329;DHT22;6230;52.390;10.256;2023-03-23T12:46:48;18.10;56.30
12329;DHT22;6230;52.390;10.256;2023-03-23T12:49:31;18.00;56.50
12329;DHT22;6230;52.390;10.256;2023-03-23T12:52:07;17.80;57.60
12329;DHT22;6230;52.390;10.256;2023-03-23T12:54:42;17.60;58.30
12329;DHT22;6230;52.390;10.256;2023-03-23T12:57:19;17.40;59.10
12329;DHT22;6230;52.390;10.256;2023-03-23T12:59:59;17.20;59.70
12329;DHT22;6230;52.390;10.256;2023-03-23T13:02:51;17.00;60.10
12329;DHT22;6230;52.390;10.256;2023-03-23T13:07:59;16.80;60.80
12329;DHT22;6230;52.390;10.256;2023-03-23T13:10:29;16.70;61.20
12329;DHT22;6230;52.390;10.256;2023-03-23T13:12:57;16.70;61.30
12329;DHT22;6230;52.390;10.256;2023-03-23T13:15:41;16.60;61.50
12329;DHT22;6230;52.390;10.256;2023-03-23T13:18:12;16.60;62.00
12329;DHT22;6230;52.390;10.256;2023-03-23T13:23:37;16.50;62.40
12329;DHT22;6230;52.390;10.256;2023-03-23T13:26:13;16.40;62.50
12329;DHT22;6230;52.390;10.256;2023-03-23T13:29:01;16.40;62.70
12329;DHT22;6230;52.390;10.256;2023-03-23T13:31:36;16.30;62.90
12329;DHT22;6230;52.390;10.256;2023-03-23T13:34:12;16.30;62.80
12329;DHT22;6230;52.390;10.256;2023-03-23T13:37:01;16.30;62.80
12329;DHT22;6230;52.390;10.256;2023-03-23T13:49:57;16.30;61.80
12329;DHT22;6230;52.390;10.256;2023-03-23T14:03:37;16.40;60.40
12329;DHT22;6230;52.390;10.256;2023-03-23T14:06:07;16.40;60.00
12329;DHT22;6230;52.390;10.256;2023-03-23T14:08:39;16.30;60.00
12329;DHT22;6230;52.390;10.256;2023-03-23T14:11:14;16.40;59.90
12329;DHT22;6230;52.390;10.256;2023-03-23T14:16:42;16.30;59.70
12329;DHT22;6230;52.390;10.256;2023-03-23T14:19:25;16.30;59.60
12329;DHT22;6230;52.390;10.256;2023-03-23T14:24:21;16.20;60.10
12329;DHT22;6230;52.390;10.256;2023-03-23T14:26:52;16.10;60.40
12329;DHT22;6230;52.390;10.256;2023-03-23T14:29:20;16.10;60.60
12329;DHT22;6230;52.390;10.256;2023-03-23T14:31:52;16.00;60.60
12329;DHT22;6230;52.390;10.256;2023-03-23T14:34:19;16.00;60.90
12329;DHT22;6230;52.390;10.256;2023-03-23T14:36:46;15.90;61.30
12329;DHT22;6230;52.390;10.256;2023-03-23T14:39:33;15.80;61.70
12329;DHT22;6230;52.390;10.256;2023-03-23T14:42:05;15.70;62.50
12329;DHT22;6230;52.390;10.256;2023-03-23T14:44:35;15.60;62.90
12329;DHT22;6230;52.390;10.256;2023-03-23T14:47:04;15.50;63.40
12329;DHT22;6230;52.390;10.256;2023-03-23T14:49:34;15.40;64.00
12329;DHT22;6230;52.390;10.256;2023-03-23T14:52:13;15.40;64.50
12329;DHT22;6230;52.390;10.256;2023-03-23T14:54:40;15.40;64.80
12329;DHT22;6230;52.390;10.256;2023-03-23T14:57:17;15.30;64.80
12329;DHT22;6230;52.390;10.256;2023-03-23T14:59:44;15.30;65.20
12329;DHT22;6230;52.390;10.256;2023-03-23T15:02:18;15.30;65.50
12329;DHT22;6230;52.390;10.256;2023-03-23T15:04:49;15.20;66.10
12329;DHT22;6230;52.390;10.256;2023-03-23T15:07:16;15.20;66.40
12329;DHT22;6230;52.390;10.256;2023-03-23T15:09:44;15.10;66.60
12329;DHT22;6230;52.390;10.256;2023-03-23T15:12:22;15.10;66.70
12329;DHT22;6230;52.390;10.256;2023-03-23T15:14:55;15.10;67.00
12329;DHT22;6230;52.390;10.256;2023-03-23T15:17:36;15.10;67.00
12329;DHT22;6230;52.390;10.256;2023-03-23T15:20:17;15.10;67.30
12329;DHT22;6230;52.390;10.256;2023-03-23T15:22:46;15.10;67.40
12329;DHT22;6230;52.390;10.256;2023-03-23T15:27:56;15.10;67.60
12329;DHT22;6230;52.390;10.256;2023-03-23T15:32:51;15.10;67.80
12329;DHT22;6230;52.390;10.256;2023-03-23T15:35:20;15.00;67.90
12329;DHT22;6230;52.390;10.256;2023-03-23T15:37:49;15.00;68.10
12329;DHT22;6230;52.390;10.256;2023-03-23T15:40:22;15.10;68.20
12329;DHT22;6230;52.390;10.256;2023-03-23T15:42:49;15.10;68.30
12329;DHT22;6230;52.390;10.256;2023-03-23T15:45:23;15.10;68.50
12329;DHT22;6230;52.390;10.256;2023-03-23T15:47:50;15.10;68.50
12329;DHT22;6230;52.390;10.256;2023-03-23T15:52:50;15.10;68.60
12329;DHT22;6230;52.390;10.256;2023-03-23T15:55:25;15.10;68.60
12329;DHT22;6230;52.390;10.256;2023-03-23T15:57:53;15.10;68.70
12329;DHT22;6230;52.390;10.256;2023-03-23T16:00:20;15.10;68.80
12329;DHT22;6230;52.390;10.256;2023-03-23T16:02:48;15.10;68.80
12329;DHT22;6230;52.390;10.256;2023-03-23T16:05:15;15.10;68.80
12329;DHT22;6230;52.390;10.256;2023-03-23T16:07:41;15.10;68.90
12329;DHT22;6230;52.390;10.256;2023-03-23T16:10:14;15.10;68.90
12329;DHT22;6230;52.390;10.256;2023-03-23T16:12:40;15.10;68.90
12329;DHT22;6230;52.390;10.256;2023-03-23T16:15:06;15.20;69.00
12329;DHT22;6230;52.390;10.256;2023-03-23T16:17:33;15.20;69.00
12329;DHT22;6230;52.390;10.256;2023-03-23T16:19:59;15.20;68.90
12329;DHT22;6230;52.390;10.256;2023-03-23T16:22:25;15.20;68.90
12329;DHT22;6230;52.390;10.256;2023-03-23T16:24:50;15.20;69.10
12329;DHT22;6230;52.390;10.256;2023-03-23T16:27:16;15.30;69.10
12329;DHT22;6230;52.390;10.256;2023-03-23T16:29:42;15.30;69.20
12329;DHT22;6230;52.390;10.256;2023-03-23T16:32:07;15.30;69.10
12329;DHT22;6230;52.390;10.256;2023-03-23T16:34:33;15.30;69.10
12329;DHT22;6230;52.390;10.256;2023-03-23T16:37:00;15.40;69.20
12329;DHT22;6230;52.390;10.256;2023-03-23T16:39:26;15.30;69.10
12329;DHT22;6230;52.390;10.256;2023-03-23T16:41:52;15.30;69.10
12329;DHT22;6230;52.390;10.256;2023-03-23T16:44:17;15.40;69.00
12329;DHT22;6230;52.390;10.256;2023-03-23T16:46:43;15.40;68.90
12329;DHT22;6230;52.390;10.256;2023-03-23T16:49:09;15.40;68.90
12329;DHT22;6230;52.390;10.256;2023-03-23T16:51:34;15.40;68.90
12329;DHT22;6230;52.390;10.256;2023-03-23T16:54:00;15.30;68.80
12329;DHT22;6230;52.390;10.256;2023-03-23T16:56:25;15.30;68.80
12329;DHT22;6230;52.390;10.256;2023-03-23T16:58:51;15.30;68.80
12329;DHT22;6230;52.390;10.256;2023-03-23T17:01:16;15.30;68.80
12329;DHT22;6230;52.390;10.256;2023-03-23T17:03:42;15.30;68.90
12329;DHT22;6230;52.390;10.256;2023-03-23T17:06:08;15.20;68.90
12329;DHT22;6230;52.390;10.256;2023-03-23T17:08:34;15.20;68.90
12329;DHT22;6230;52.390;10.256;2023-03-23T17:10:59;15.20;69.00
12329;DHT22;6230;52.390;10.256;2023-03-23T17:13:25;15.20;69.00
12329;DHT22;6230;52.390;10.256;2023-03-23T17:15:53;15.20;69.00
12329;DHT22;6230;52.390;10.256;2023-03-23T17:18:20;15.20;69.10
12329;DHT22;6230;52.390;10.256;2023-03-23T17:20:45;15.20;69.10
12329;DHT22;6230;52.390;10.256;2023-03-23T17:23:11;15.20;69.10
12329;DHT22;6230;52.390;10.256;2023-03-23T17:25:37;15.20;69.20
12329;DHT22;6230;52.390;10.256;2023-03-23T17:28:03;15.10;69.10
12329;DHT22;6230;52.390;10.256;2023-03-23T17:30:28;15.10;69.10
12329;DHT22;6230;52.390;10.256;2023-03-23T17:32:54;15.10;69.20
12329;DHT22;6230;52.390;10.256;2023-03-23T17:35:20;15.10;69.20
12329;DHT22;6230;52.390;10.256;2023-03-23T17:37:45;15.10;69.20